Wetterdaten: Woche 05.05.14 - 11.05.14 (KW19)
Datum Zeit Temp. A. Feuchte A. Luftdruck Regen Wind Richtung Sonnenschein ET UV Solar Taupunkt Windchill Windben
05.05.2014 00:00 2,2 C 90 % 1021,2 hPa 0,0 l/m 0,1 km/h (0 Bft) O-NO 0,00 h 0,000 mm 0,0 UV-I 0 W/m 0,7 C 2,2 C 0,3 km/h (0 Bft)
05.05.2014 01:00 1,6 C 91 % 1021,1 hPa 0,0 l/m 0,6 km/h (0 Bft) O-NO 0,00 h 0,000 mm 0,0 UV-I 0 W/m 0,3 C 1,6 C 2,1 km/h (1 Bft)
05.05.2014 02:00 1,4 C 91 % 1020,8 hPa 0,0 l/m 1,0 km/h (0 Bft) O-NO 0,00 h 0,000 mm 0,0 UV-I 0 W/m 0,1 C 1,4 C 2,2 km/h (1 Bft)
05.05.2014 03:00 1,3 C 91 % 1020,5 hPa 0,0 l/m 1,0 km/h (0 Bft) O-NO 0,00 h 0,000 mm 0,0 UV-I 0 W/m -0,0 C 1,3 C 2,8 km/h (1 Bft)
05.05.2014 04:00 1,7 C 90 % 1020,2 hPa 0,0 l/m 1,7 km/h (1 Bft) O 0,00 h 0,000 mm 0,0 UV-I 0 W/m 0,3 C 1,7 C 4,4 km/h (1 Bft)
05.05.2014 05:00 1,4 C 89 % 1020,1 hPa 0,0 l/m 1,4 km/h (1 Bft) O-NO 0,00 h 0,000 mm 0,0 UV-I 7 W/m -0,2 C 1,4 C 3,2 km/h (1 Bft)
05.05.2014 06:00 0,4 C 92 % 1020,3 hPa 0,0 l/m 0,3 km/h (0 Bft) O-NO 0,13 h 0,000 mm 0,0 UV-I 28 W/m -0,7 C 0,4 C 0,9 km/h (0 Bft)
05.05.2014 07:00 2,7 C 89 % 1020,5 hPa 0,0 l/m 0,1 km/h (0 Bft) O 0,97 h 0,000 mm 0,7 UV-I 185 W/m 1,0 C 2,7 C 0,6 km/h (0 Bft)
05.05.2014 08:00 6,8 C 74 % 1020,1 hPa 0,0 l/m 2,5 km/h (1 Bft) SO 1,00 h 0,076 mm 1,3 UV-I 387 W/m 2,5 C 6,8 C 4,8 km/h (1 Bft)
05.05.2014 09:00 9,5 C 64 % 1019,8 hPa 0,0 l/m 2,2 km/h (1 Bft) O-SO 1,00 h 0,178 mm 2,4 UV-I 531 W/m 3,0 C 9,5 C 4,5 km/h (1 Bft)
05.05.2014 10:00 11,4 C 59 % 1019,3 hPa 0,0 l/m 2,4 km/h (1 Bft) O-SO 1,00 h 0,254 mm 3,7 UV-I 685 W/m 3,6 C 11,4 C 4,9 km/h (1 Bft)
05.05.2014 11:00 12,9 C 52 % 1018,8 hPa 0,0 l/m 5,0 km/h (1 Bft) W-NW 1,00 h 0,330 mm 4,4 UV-I 629 W/m 3,3 C 12,6 C 8,5 km/h (2 Bft)
05.05.2014 12:00 14,2 C 46 % 1018,4 hPa 0,0 l/m 6,0 km/h (2 Bft) S 1,00 h 0,356 mm 5,8 UV-I 794 W/m 2,8 C 13,6 C 9,7 km/h (2 Bft)
05.05.2014 13:00 15,2 C 42 % 1017,9 hPa 0,0 l/m 6,4 km/h (2 Bft) W 0,98 h 0,457 mm 5,4 UV-I 753 W/m 2,2 C 14,5 C 10,3 km/h (2 Bft)
05.05.2014 14:00 16,3 C 36 % 1017,4 hPa 0,0 l/m 6,9 km/h (2 Bft) S-SO 1,02 h 0,457 mm 5,2 UV-I 811 W/m 1,3 C 15,6 C 10,6 km/h (2 Bft)
05.05.2014 15:00 16,0 C 37 % 1017,0 hPa 0,0 l/m 7,4 km/h (2 Bft) W-SW 1,00 h 0,457 mm 3,4 UV-I 525 W/m 1,5 C 15,3 C 11,4 km/h (2 Bft)
05.05.2014 16:00 16,9 C 37 % 1016,5 hPa 0,0 l/m 7,1 km/h (2 Bft) W-NW 1,00 h 0,330 mm 2,9 UV-I 553 W/m 2,2 C 16,2 C 11,1 km/h (2 Bft)
05.05.2014 17:00 16,5 C 38 % 1016,2 hPa 0,0 l/m 5,2 km/h (1 Bft) S-SW 1,00 h 0,356 mm 1,7 UV-I 393 W/m 2,1 C 16,3 C 8,7 km/h (2 Bft)
05.05.2014 18:00 15,8 C 39 % 1016,0 hPa 0,0 l/m 5,5 km/h (1 Bft) W 0,77 h 0,254 mm 0,8 UV-I 59 W/m 2,0 C 15,5 C 8,6 km/h (2 Bft)
05.05.2014 19:00 15,0 C 42 % 1015,8 hPa 0,0 l/m 4,1 km/h (1 Bft) W 0,00 h 0,076 mm 0,0 UV-I 30 W/m 2,2 C 14,9 C 6,5 km/h (2 Bft)
05.05.2014 20:00 13,0 C 51 % 1016,1 hPa 0,0 l/m 0,4 km/h (0 Bft) W 0,00 h 0,051 mm 0,0 UV-I 13 W/m 3,1 C 13,0 C 0,9 km/h (0 Bft)
05.05.2014 21:00 10,0 C 67 % 1016,6 hPa 0,0 l/m 0,1 km/h (0 Bft) N-NO 0,00 h 0,025 mm 0,0 UV-I 0 W/m 4,2 C 10,0 C 0,6 km/h (0 Bft)
05.05.2014 22:00 8,2 C 76 % 1016,6 hPa 0,0 l/m 0,0 km/h (0 Bft) O-NO 0,00 h 0,025 mm 0,0 UV-I 0 W/m 4,1 C 8,2 C 0,5 km/h (0 Bft)
05.05.2014 23:00 6,4 C 83 % 1016,5 hPa 0,0 l/m 0,0 km/h (0 Bft) N 0,00 h 0,025 mm 0,0 UV-I 0 W/m 3,7 C 6,4 C 0,2 km/h (0 Bft)
06.05.2014 00:00 5,5 C 86 % 1016,8 hPa 0,0 l/m 0,0 km/h (0 Bft) NO 0,00 h 0,000 mm 0,0 UV-I 0 W/m 3,3 C 5,5 C 0,3 km/h (0 Bft)
06.05.2014 01:00 4,5 C 89 % 1016,5 hPa 0,0 l/m 0,0 km/h (0 Bft) N 0,00 h 0,000 mm 0,0 UV-I 0 W/m 2,9 C 4,5 C 0,0 km/h (0 Bft)
06.05.2014 02:00 3,8 C 91 % 1016,1 hPa 0,0 l/m 0,0 km/h (0 Bft) N 0,00 h 0,000 mm 0,0 UV-I 0 W/m 2,5 C 3,8 C 0,0 km/h (0 Bft)
06.05.2014 03:00 3,2 C 91 % 1015,8 hPa 0,0 l/m 0,0 km/h (0 Bft) N 0,00 h 0,000 mm 0,0 UV-I 0 W/m 1,9 C 3,2 C 0,0 km/h (0 Bft)
06.05.2014 04:00 2,7 C 92 % 1015,8 hPa 0,0 l/m 0,0 km/h (0 Bft) N 0,00 h 0,000 mm 0,0 UV-I 0 W/m 1,6 C 2,7 C 0,0 km/h (0 Bft)
06.05.2014 05:00 2,3 C 93 % 1015,8 hPa 0,0 l/m 0,0 km/h (0 Bft) N 0,00 h 0,000 mm 0,0 UV-I 8 W/m 1,3 C 2,3 C 0,1 km/h (0 Bft)
06.05.2014 06:00 2,7 C 93 % 1015,8 hPa 0,0 l/m 0,1 km/h (0 Bft) N 0,00 h 0,000 mm 0,0 UV-I 26 W/m 1,6 C 2,7 C 0,5 km/h (0 Bft)
06.05.2014 07:00 4,6 C 91 % 1016,1 hPa 0,0 l/m 0,1 km/h (0 Bft) N 0,78 h 0,000 mm 0,7 UV-I 181 W/m 3,3 C 4,6 C 0,4 km/h (0 Bft)
06.05.2014 08:00 9,1 C 76 % 1015,7 hPa 0,0 l/m 0,1 km/h (0 Bft) N 1,00 h 0,076 mm 1,4 UV-I 351 W/m 5,0 C 9,1 C 0,7 km/h (0 Bft)
06.05.2014 09:00 13,3 C 60 % 1015,3 hPa 0,0 l/m 2,9 km/h (1 Bft) N-NW 1,00 h 0,152 mm 2,6 UV-I 531 W/m 5,6 C 13,2 C 5,3 km/h (1 Bft)
06.05.2014 10:00 15,9 C 46 % 1015,1 hPa 0,0 l/m 9,3 km/h (2 Bft) S 1,00 h 0,279 mm 3,6 UV-I 604 W/m 4,3 C 14,5 C 14,4 km/h (3 Bft)
06.05.2014 11:00 17,1 C 43 % 1014,6 hPa 0,0 l/m 10,5 km/h (2 Bft) S-SO 1,00 h 0,381 mm 4,4 UV-I 636 W/m 4,4 C 15,3 C 16,1 km/h (3 Bft)
06.05.2014 12:00 17,9 C 42 % 1014,1 hPa 0,0 l/m 12,1 km/h (2 Bft) S 1,00 h 0,432 mm 4,5 UV-I 592 W/m 4,8 C 15,7 C 18,4 km/h (3 Bft)
06.05.2014 13:00 19,1 C 42 % 1013,5 hPa 0,0 l/m 11,7 km/h (2 Bft) S 1,00 h 0,432 mm 5,1 UV-I 680 W/m 5,8 C 17,2 C 17,0 km/h (3 Bft)
06.05.2014 14:00 19,9 C 40 % 1012,9 hPa 0,0 l/m 12,1 km/h (2 Bft) S 1,00 h 0,483 mm 4,2 UV-I 565 W/m 6,0 C 18,0 C 17,9 km/h (3 Bft)
06.05.2014 15:00 20,1 C 41 % 1012,4 hPa 0,0 l/m 10,3 km/h (2 Bft) S 1,00 h 0,432 mm 2,7 UV-I 380 W/m 6,6 C 18,7 C 15,7 km/h (3 Bft)
06.05.2014 16:00 19,9 C 45 % 1012,1 hPa 0,0 l/m 9,2 km/h (2 Bft) S 1,00 h 0,305 mm 1,9 UV-I 312 W/m 7,5 C 18,9 C 14,1 km/h (3 Bft)
06.05.2014 17:00 19,8 C 47 % 1011,8 hPa 0,0 l/m 8,9 km/h (2 Bft) S 1,00 h 0,254 mm 1,0 UV-I 178 W/m 8,3 C 18,8 C 13,0 km/h (3 Bft)
06.05.2014 18:00 19,5 C 48 % 1011,3 hPa 0,0 l/m 6,2 km/h (2 Bft) S 1,00 h 0,178 mm 0,6 UV-I 93 W/m 8,3 C 19,3 C 9,8 km/h (2 Bft)
06.05.2014 19:00 19,0 C 50 % 1010,9 hPa 0,0 l/m 5,3 km/h (1 Bft) S 0,77 h 0,102 mm 0,0 UV-I 63 W/m 8,4 C 18,9 C 7,8 km/h (2 Bft)
06.05.2014 20:00 18,2 C 52 % 1011,2 hPa 0,0 l/m 4,1 km/h (1 Bft) W 0,00 h 0,075 mm 0,0 UV-I 16 W/m 8,3 C 18,2 C 6,5 km/h (2 Bft)
06.05.2014 21:00 16,8 C 56 % 1011,6 hPa 0,0 l/m 2,6 km/h (1 Bft) W 0,00 h 0,051 mm 0,0 UV-I 0 W/m 8,1 C 16,7 C 4,9 km/h (1 Bft)
06.05.2014 22:00 16,3 C 58 % 1011,9 hPa 0,0 l/m 4,0 km/h (1 Bft) W-SW 0,00 h 0,051 mm 0,0 UV-I 0 W/m 8,0 C 16,3 C 6,5 km/h (2 Bft)
06.05.2014 23:00 15,1 C 65 % 1011,8 hPa 0,2 l/m 5,5 km/h (1 Bft) SW 0,00 h 0,051 mm 0,0 UV-I 0 W/m 8,5 C 14,7 C 9,0 km/h (2 Bft)
07.05.2014 00:00 13,7 C 74 % 1011,5 hPa 0,0 l/m 3,1 km/h (1 Bft) S-SW 0,00 h 0,051 mm 0,0 UV-I 0 W/m 9,2 C 13,7 C 5,5 km/h (1 Bft)
07.05.2014 01:00 13,4 C 72 % 1011,3 hPa 0,0 l/m 3,9 km/h (1 Bft) S 0,00 h 0,025 mm 0,0 UV-I 0 W/m 8,6 C 13,4 C 5,8 km/h (1 Bft)
07.05.2014 02:00 13,3 C 71 % 1010,7 hPa 0,0 l/m 2,9 km/h (1 Bft) S-SO 0,00 h 0,025 mm 0,0 UV-I 0 W/m 8,2 C 13,3 C 4,7 km/h (1 Bft)
07.05.2014 03:00 13,1 C 71 % 1010,2 hPa 0,0 l/m 2,1 km/h (1 Bft) S 0,00 h 0,025 mm 0,0 UV-I 0 W/m 7,9 C 13,1 C 3,5 km/h (1 Bft)
07.05.2014 04:00 13,5 C 68 % 1009,8 hPa 0,0 l/m 5,8 km/h (1 Bft) S 0,00 h 0,000 mm 0,0 UV-I 0 W/m 7,7 C 13,2 C 9,2 km/h (2 Bft)
07.05.2014 05:00 13,8 C 65 % 1009,6 hPa 0,0 l/m 8,2 km/h (2 Bft) S 0,00 h 0,025 mm 0,0 UV-I 0 W/m 7,4 C 12,7 C 12,0 km/h (2 Bft)
07.05.2014 06:00 13,3 C 70 % 1009,4 hPa 0,0 l/m 8,3 km/h (2 Bft) S 0,00 h 0,051 mm 0,0 UV-I 22 W/m 7,9 C 12,1 C 12,1 km/h (2 Bft)
07.05.2014 07:00 13,2 C 72 % 1009,6 hPa 0,0 l/m 10,1 km/h (2 Bft) S 0,32 h 0,051 mm 0,0 UV-I 43 W/m 8,3 C 11,2 C 15,9 km/h (3 Bft)
07.05.2014 08:00 12,6 C 80 % 1010,1 hPa 0,0 l/m 8,2 km/h (2 Bft) W-SW 0,65 h 0,051 mm 0,6 UV-I 67 W/m 9,2 C 11,4 C 12,9 km/h (3 Bft)
07.05.2014 09:00 11,6 C 83 % 1010,6 hPa 0,0 l/m 5,9 km/h (2 Bft) N-NW 0,47 h 0,051 mm 1,0 UV-I 66 W/m 8,7 C 10,6 C 9,0 km/h (2 Bft)
07.05.2014 10:00 12,5 C 78 % 1010,2 hPa 0,0 l/m 5,3 km/h (1 Bft) S 1,00 h 0,051 mm 1,8 UV-I 272 W/m 8,7 C 12,2 C 8,4 km/h (2 Bft)
07.05.2014 11:00 12,4 C 79 % 1010,7 hPa 0,0 l/m 8,1 km/h (2 Bft) S 1,00 h 0,152 mm 1,5 UV-I 195 W/m 8,8 C 11,2 C 12,2 km/h (3 Bft)
07.05.2014 12:00 12,3 C 83 % 1010,6 hPa 0,0 l/m 8,4 km/h (2 Bft) S 1,00 h 0,127 mm 1,4 UV-I 169 W/m 9,5 C 10,9 C 13,0 km/h (3 Bft)
07.05.2014 13:00 11,7 C 89 % 1010,9 hPa 1,2 l/m 8,5 km/h (2 Bft) W-NW 0,98 h 0,102 mm 1,2 UV-I 149 W/m 10,0 C 10,4 C 13,2 km/h (3 Bft)
07.05.2014 14:00 12,7 C 82 % 1011,1 hPa 0,0 l/m 10,2 km/h (2 Bft) W 1,00 h 0,076 mm 2,5 UV-I 379 W/m 9,7 C 10,6 C 15,3 km/h (3 Bft)
07.05.2014 15:00 13,3 C 71 % 1011,3 hPa 0,0 l/m 14,0 km/h (3 Bft) W 1,00 h 0,203 mm 1,8 UV-I 264 W/m 8,0 C 9,6 C 21,7 km/h (4 Bft)
07.05.2014 16:00 13,5 C 68 % 1011,5 hPa 0,0 l/m 11,9 km/h (2 Bft) W 1,00 h 0,178 mm 2,0 UV-I 383 W/m 7,7 C 10,7 C 18,2 km/h (3 Bft)
07.05.2014 17:00 14,2 C 65 % 1011,5 hPa 0,0 l/m 11,3 km/h (2 Bft) W-SW 1,00 h 0,229 mm 1,4 UV-I 317 W/m 7,7 C 11,8 C 16,9 km/h (3 Bft)
07.05.2014 18:00 14,2 C 61 % 1011,6 hPa 0,0 l/m 9,9 km/h (2 Bft) W 0,85 h 0,203 mm 0,6 UV-I 90 W/m 6,6 C 12,3 C 14,9 km/h (3 Bft)
07.05.2014 19:00 13,8 C 58 % 1012,2 hPa 0,0 l/m 8,6 km/h (2 Bft) W 0,55 h 0,102 mm 0,0 UV-I 47 W/m 5,7 C 12,5 C 13,0 km/h (3 Bft)
07.05.2014 20:00 11,8 C 71 % 1012,8 hPa 0,0 l/m 7,4 km/h (2 Bft) W-SW 0,00 h 0,076 mm 0,0 UV-I 13 W/m 6,7 C 10,6 C 12,0 km/h (2 Bft)
07.05.2014 21:00 9,4 C 86 % 1013,4 hPa 0,0 l/m 1,0 km/h (0 Bft) S 0,00 h 0,025 mm 0,0 UV-I 0 W/m 7,1 C 9,4 C 2,4 km/h (1 Bft)
07.05.2014 22:00 9,0 C 86 % 1014,1 hPa 0,0 l/m 2,8 km/h (1 Bft) SW 0,00 h 0,000 mm 0,0 UV-I 0 W/m 6,8 C 9,0 C 5,2 km/h (1 Bft)
07.05.2014 23:00 8,1 C 89 % 1014,4 hPa 0,0 l/m 0,4 km/h (0 Bft) S-SO 0,00 h 0,000 mm 0,0 UV-I 0 W/m 6,3 C 8,1 C 1,1 km/h (1 Bft)
08.05.2014 00:00 7,9 C 89 % 1014,7 hPa 0,0 l/m 2,3 km/h (1 Bft) S-SW 0,00 h 0,000 mm 0,0 UV-I 0 W/m 6,2 C 7,9 C 4,5 km/h (1 Bft)
08.05.2014 01:00 7,8 C 90 % 1014,8 hPa 0,0 l/m 2,1 km/h (1 Bft) S 0,00 h 0,000 mm 0,0 UV-I 0 W/m 6,2 C 7,8 C 3,9 km/h (1 Bft)
08.05.2014 02:00 7,3 C 92 % 1014,8 hPa 0,0 l/m 2,9 km/h (1 Bft) S 0,00 h 0,000 mm 0,0 UV-I 0 W/m 6,0 C 7,3 C 5,0 km/h (1 Bft)
08.05.2014 03:00 7,2 C 93 % 1015,0 hPa 0,0 l/m 3,8 km/h (1 Bft) S 0,00 h 0,000 mm 0,0 UV-I 0 W/m 6,1 C 7,2 C 5,8 km/h (2 Bft)
08.05.2014 04:00 7,8 C 92 % 1014,8 hPa 0,0 l/m 4,1 km/h (1 Bft) SW 0,00 h 0,000 mm 0,0 UV-I 0 W/m 6,6 C 7,8 C 7,6 km/h (2 Bft)
08.05.2014 05:00 8,1 C 92 % 1014,9 hPa 0,0 l/m 3,7 km/h (1 Bft) S 0,00 h 0,000 mm 0,0 UV-I 0 W/m 6,8 C 8,1 C 6,3 km/h (2 Bft)
08.05.2014 06:00 8,4 C 92 % 1015,2 hPa 0,0 l/m 5,4 km/h (1 Bft) SW 0,20 h 0,000 mm 0,0 UV-I 44 W/m 7,1 C 8,2 C 8,9 km/h (2 Bft)
08.05.2014 07:00 8,8 C 92 % 1015,4 hPa 0,0 l/m 7,0 km/h (2 Bft) SW 0,43 h 0,025 mm 0,0 UV-I 50 W/m 7,6 C 8,1 C 11,3 km/h (2 Bft)
08.05.2014 08:00 9,1 C 93 % 1015,6 hPa 0,0 l/m 7,8 km/h (2 Bft) SW 0,63 h 0,025 mm 0,8 UV-I 86 W/m 8,0 C 8,0 C 12,9 km/h (3 Bft)
08.05.2014 09:00 10,4 C 85 % 1016,0 hPa 0,0 l/m 10,8 km/h (2 Bft) W-SW 1,00 h 0,051 mm 1,6 UV-I 264 W/m 8,1 C 7,7 C 16,9 km/h (3 Bft)
08.05.2014 10:00 12,4 C 68 % 1016,0 hPa 0,0 l/m 12,5 km/h (3 Bft) W 1,00 h 0,152 mm 2,4 UV-I 451 W/m 6,6 C 9,2 C 18,3 km/h (3 Bft)
08.05.2014 11:00 12,5 C 67 % 1016,1 hPa 0,0 l/m 11,8 km/h (2 Bft) W-SW 1,00 h 0,254 mm 1,9 UV-I 276 W/m 6,6 C 9,6 C 17,6 km/h (3 Bft)
08.05.2014 12:00 13,2 C 65 % 1015,9 hPa 0,0 l/m 12,7 km/h (3 Bft) W-SW 1,00 h 0,178 mm 3,3 UV-I 452 W/m 6,8 C 10,0 C 19,5 km/h (3 Bft)
08.05.2014 13:00 14,6 C 65 % 1015,7 hPa 0,0 l/m 12,1 km/h (2 Bft) SW 1,00 h 0,254 mm 4,0 UV-I 561 W/m 8,1 C 11,9 C 19,7 km/h (3 Bft)
08.05.2014 14:00 14,6 C 65 % 1015,4 hPa 0,0 l/m 13,6 km/h (3 Bft) SW 1,00 h 0,330 mm 3,0 UV-I 344 W/m 8,0 C 11,4 C 20,4 km/h (4 Bft)
08.05.2014 15:00 15,3 C 63 % 1015,0 hPa 0,0 l/m 11,8 km/h (2 Bft) W-SW 1,00 h 0,254 mm 3,0 UV-I 377 W/m 8,2 C 12,9 C 18,2 km/h (3 Bft)
08.05.2014 16:00 14,9 C 64 % 1014,5 hPa 0,0 l/m 10,3 km/h (2 Bft) W-SW 1,00 h 0,279 mm 1,6 UV-I 246 W/m 8,1 C 13,0 C 15,7 km/h (3 Bft)
08.05.2014 17:00 15,7 C 60 % 1013,8 hPa 0,0 l/m 10,5 km/h (2 Bft) SW 1,00 h 0,178 mm 1,2 UV-I 240 W/m 7,8 C 13,7 C 16,7 km/h (3 Bft)
08.05.2014 18:00 15,2 C 63 % 1013,5 hPa 0,0 l/m 6,4 km/h (2 Bft) S 1,00 h 0,179 mm 0,6 UV-I 96 W/m 8,1 C 14,7 C 9,9 km/h (2 Bft)
08.05.2014 19:00 14,9 C 65 % 1013,1 hPa 0,0 l/m 3,9 km/h (1 Bft) S 0,53 h 0,076 mm 0,0 UV-I 54 W/m 8,4 C 14,9 C 6,4 km/h (2 Bft)
08.05.2014 20:00 14,2 C 65 % 1012,8 hPa 0,0 l/m 5,0 km/h (1 Bft) S 0,00 h 0,051 mm 0,0 UV-I 7 W/m 7,9 C 14,2 C 7,7 km/h (2 Bft)
08.05.2014 21:00 13,2 C 73 % 1012,6 hPa 0,0 l/m 4,7 km/h (1 Bft) S 0,00 h 0,025 mm 0,0 UV-I 0 W/m 8,5 C 13,2 C 6,6 km/h (2 Bft)
08.05.2014 22:00 12,6 C 79 % 1012,4 hPa 0,0 l/m 4,8 km/h (1 Bft) S 0,00 h 0,026 mm 0,0 UV-I 0 W/m 9,1 C 12,6 C 7,0 km/h (2 Bft)
08.05.2014 23:00 12,5 C 81 % 1011,8 hPa 0,0 l/m 4,7 km/h (1 Bft) S-SO 0,00 h 0,025 mm 0,0 UV-I 0 W/m 9,4 C 12,5 C 7,2 km/h (2 Bft)
09.05.2014 00:00 12,9 C 76 % 1011,6 hPa 0,0 l/m 8,7 km/h (2 Bft) S 0,00 h 0,025 mm 0,0 UV-I 0 W/m 8,7 C 11,5 C 13,8 km/h (3 Bft)
09.05.2014 01:00 11,6 C 86 % 1012,1 hPa 1,8 l/m 8,7 km/h (2 Bft) SW 0,00 h 0,025 mm 0,0 UV-I 0 W/m 9,2 C 10,0 C 13,4 km/h (3 Bft)
09.05.2014 02:00 10,7 C 93 % 1011,6 hPa 1,4 l/m 8,0 km/h (2 Bft) S-SW 0,00 h 0,025 mm 0,0 UV-I 0 W/m 9,6 C 9,5 C 12,6 km/h (3 Bft)
09.05.2014 03:00 10,8 C 94 % 1011,5 hPa 0,0 l/m 8,0 km/h (2 Bft) SW 0,00 h 0,000 mm 0,0 UV-I 0 W/m 9,8 C 9,5 C 13,1 km/h (3 Bft)
09.05.2014 04:00 10,9 C 94 % 1011,3 hPa 0,2 l/m 8,8 km/h (2 Bft) SW 0,00 h 0,000 mm 0,0 UV-I 0 W/m 9,9 C 9,2 C 14,5 km/h (3 Bft)
09.05.2014 05:00 10,9 C 95 % 1011,5 hPa 0,6 l/m 9,4 km/h (2 Bft) SW 0,00 h 0,000 mm 0,0 UV-I 0 W/m 10,1 C 9,0 C 15,1 km/h (3 Bft)
09.05.2014 06:00 11,2 C 94 % 1012,1 hPa 0,0 l/m 10,7 km/h (2 Bft) W-SW 0,00 h 0,000 mm 0,0 UV-I 12 W/m 10,2 C 8,6 C 16,3 km/h (3 Bft)
09.05.2014 07:00 11,5 C 93 % 1012,7 hPa 0,2 l/m 10,0 km/h (2 Bft) W-SW 0,38 h 0,025 mm 0,0 UV-I 43 W/m 10,3 C 9,2 C 16,3 km/h (3 Bft)
09.05.2014 08:00 11,8 C 93 % 1013,1 hPa 0,0 l/m 7,7 km/h (2 Bft) SW 0,80 h 0,025 mm 0,8 UV-I 103 W/m 10,7 C 10,8 C 12,3 km/h (3 Bft)
09.05.2014 09:00 12,5 C 90 % 1013,1 hPa 0,0 l/m 10,0 km/h (2 Bft) SW 1,00 h 0,051 mm 0,9 UV-I 152 W/m 11,0 C 10,5 C 16,0 km/h (3 Bft)
09.05.2014 10:00 13,7 C 85 % 1013,3 hPa 0,0 l/m 11,8 km/h (2 Bft) W-SW 1,00 h 0,102 mm 1,8 UV-I 355 W/m 11,3 C 11,0 C 18,4 km/h (3 Bft)
09.05.2014 11:00 14,2 C 82 % 1013,3 hPa 0,0 l/m 12,9 km/h (3 Bft) W-SW 1,00 h 0,178 mm 2,6 UV-I 325 W/m 11,2 C 11,1 C 20,4 km/h (4 Bft)
09.05.2014 12:00 15,9 C 75 % 1013,1 hPa 0,0 l/m 11,9 km/h (2 Bft) W-SW 1,00 h 0,229 mm 5,0 UV-I 635 W/m 11,3 C 13,4 C 18,6 km/h (3 Bft)
09.05.2014 13:00 16,4 C 65 % 1012,9 hPa 0,0 l/m 13,3 km/h (3 Bft) W-SW 1,00 h 0,406 mm 3,1 UV-I 349 W/m 9,8 C 13,6 C 20,5 km/h (4 Bft)
09.05.2014 14:00 17,1 C 59 % 1012,6 hPa 0,0 l/m 13,9 km/h (3 Bft) W 1,00 h 0,279 mm 3,2 UV-I 358 W/m 8,9 C 14,3 C 21,9 km/h (4 Bft)
09.05.2014 15:00 17,6 C 50 % 1012,6 hPa 0,0 l/m 18,6 km/h (3 Bft) W-SW 1,00 h 0,305 mm 3,4 UV-I 575 W/m 7,1 C 13,5 C 25,6 km/h (4 Bft)
09.05.2014 16:00 17,7 C 50 % 1012,2 hPa 0,0 l/m 14,4 km/h (3 Bft) W-SW 1,00 h 0,406 mm 1,9 UV-I 329 W/m 7,0 C 14,8 C 22,3 km/h (4 Bft)
09.05.2014 17:00 17,3 C 51 % 1012,0 hPa 0,0 l/m 15,2 km/h (3 Bft) W-SW 1,00 h 0,279 mm 1,3 UV-I 233 W/m 7,0 C 14,1 C 23,7 km/h (4 Bft)
09.05.2014 18:00 16,7 C 52 % 1012,0 hPa 0,0 l/m 14,8 km/h (3 Bft) W-SW 1,00 h 0,229 mm 0,6 UV-I 120 W/m 6,8 C 13,4 C 23,5 km/h (4 Bft)
09.05.2014 19:00 15,6 C 59 % 1012,3 hPa 0,0 l/m 12,7 km/h (3 Bft) W-SW 0,33 h 0,152 mm 0,0 UV-I 41 W/m 7,4 C 12,8 C 19,4 km/h (3 Bft)
09.05.2014 20:00 14,1 C 66 % 1013,0 hPa 0,0 l/m 10,8 km/h (2 Bft) W 0,00 h 0,102 mm 0,0 UV-I 10 W/m 8,0 C 11,9 C 16,9 km/h (3 Bft)
09.05.2014 21:00 13,4 C 69 % 1013,6 hPa 0,0 l/m 10,8 km/h (2 Bft) W 0,00 h 0,051 mm 0,0 UV-I 0 W/m 7,9 C 11,2 C 15,8 km/h (3 Bft)
09.05.2014 22:00 11,5 C 84 % 1014,0 hPa 0,2 l/m 6,0 km/h (2 Bft) W 0,00 h 0,051 mm 0,0 UV-I 0 W/m 8,8 C 10,7 C 9,9 km/h (2 Bft)
09.05.2014 23:00 10,5 C 88 % 1013,6 hPa 0,0 l/m 4,1 km/h (1 Bft) S 0,00 h 0,025 mm 0,0 UV-I 0 W/m 8,7 C 10,5 C 6,5 km/h (2 Bft)
10.05.2014 00:00 10,5 C 88 % 1013,7 hPa 0,4 l/m 3,1 km/h (1 Bft) SW 0,00 h 0,000 mm 0,0 UV-I 0 W/m 8,6 C 10,5 C 5,6 km/h (1 Bft)
10.05.2014 01:00 8,7 C 90 % 1014,8 hPa 3,8 l/m 10,6 km/h (2 Bft) NW 0,00 h 0,000 mm 0,0 UV-I 0 W/m 7,1 C 5,9 C 16,9 km/h (3 Bft)
10.05.2014 02:00 6,9 C 93 % 1015,1 hPa 0,0 l/m 1,3 km/h (1 Bft) S 0,00 h 0,025 mm 0,0 UV-I 0 W/m 5,9 C 6,9 C 3,1 km/h (1 Bft)
10.05.2014 03:00 6,2 C 95 % 1015,4 hPa 0,0 l/m 1,2 km/h (1 Bft) S-SO 0,00 h 0,000 mm 0,0 UV-I 0 W/m 5,4 C 6,2 C 2,3 km/h (1 Bft)
10.05.2014 04:00 6,3 C 95 % 1015,7 hPa 0,0 l/m 1,7 km/h (1 Bft) SO 0,00 h 0,000 mm 0,0 UV-I 0 W/m 5,5 C 6,3 C 3,2 km/h (1 Bft)
10.05.2014 05:00 6,2 C 95 % 1016,1 hPa 0,0 l/m 1,3 km/h (1 Bft) SO 0,00 h 0,000 mm 0,0 UV-I 13 W/m 5,4 C 6,2 C 3,3 km/h (1 Bft)
10.05.2014 06:00 6,9 C 95 % 1016,3 hPa 0,2 l/m 1,3 km/h (1 Bft) SW 0,00 h 0,000 mm 0,0 UV-I 29 W/m 6,1 C 6,9 C 2,3 km/h (1 Bft)
10.05.2014 07:00 8,2 C 92 % 1016,4 hPa 0,0 l/m 4,5 km/h (1 Bft) S-SW 0,92 h 0,025 mm 0,6 UV-I 118 W/m 7,0 C 8,1 C 7,2 km/h (2 Bft)
10.05.2014 08:00 9,3 C 88 % 1016,2 hPa 0,0 l/m 5,1 km/h (1 Bft) W-SW 1,00 h 0,051 mm 0,9 UV-I 238 W/m 7,3 C 9,0 C 8,2 km/h (2 Bft)
10.05.2014 09:00 10,3 C 84 % 1016,2 hPa 0,0 l/m 6,2 km/h (2 Bft) W-SW 1,00 h 0,102 mm 1,4 UV-I 273 W/m 7,6 C 9,6 C 10,0 km/h (2 Bft)
10.05.2014 10:00 10,8 C 80 % 1015,8 hPa 0,0 l/m 7,6 km/h (2 Bft) W-SW 1,00 h 0,127 mm 1,7 UV-I 257 W/m 7,5 C 9,9 C 11,9 km/h (2 Bft)
10.05.2014 11:00 12,1 C 74 % 1015,3 hPa 0,0 l/m 9,0 km/h (2 Bft) S 1,00 h 0,127 mm 2,8 UV-I 363 W/m 7,7 C 10,5 C 14,2 km/h (3 Bft)
10.05.2014 12:00 13,8 C 66 % 1014,6 hPa 0,0 l/m 10,8 km/h (2 Bft) SW 1,00 h 0,203 mm 4,3 UV-I 530 W/m 7,7 C 11,5 C 15,9 km/h (3 Bft)
10.05.2014 13:00 14,6 C 63 % 1013,9 hPa 0,0 l/m 9,9 km/h (2 Bft) W-SW 1,00 h 0,330 mm 4,0 UV-I 432 W/m 7,5 C 12,8 C 15,6 km/h (3 Bft)
10.05.2014 14:00 14,9 C 61 % 1013,1 hPa 0,0 l/m 10,4 km/h (2 Bft) W-SW 1,00 h 0,279 mm 2,9 UV-I 373 W/m 7,4 C 12,8 C 16,0 km/h (3 Bft)
10.05.2014 15:00 15,9 C 57 % 1012,0 hPa 0,0 l/m 11,8 km/h (2 Bft) W-SW 1,00 h 0,229 mm 3,4 UV-I 465 W/m 7,3 C 13,4 C 18,2 km/h (3 Bft)
10.05.2014 16:00 15,8 C 59 % 1010,9 hPa 0,0 l/m 7,9 km/h (2 Bft) W-SW 1,00 h 0,330 mm 1,6 UV-I 225 W/m 7,8 C 14,9 C 12,7 km/h (3 Bft)
10.05.2014 17:00 15,1 C 67 % 1010,3 hPa 0,0 l/m 7,3 km/h (2 Bft) W-SW 0,63 h 0,152 mm 0,8 UV-I 71 W/m 8,9 C 14,4 C 11,0 km/h (2 Bft)
10.05.2014 18:00 13,1 C 82 % 1010,1 hPa 0,6 l/m 5,8 km/h (2 Bft) W-NW 0,05 h 0,076 mm 0,0 UV-I 38 W/m 10,1 C 12,8 C 8,7 km/h (2 Bft)
10.05.2014 19:00 11,9 C 89 % 1009,8 hPa 0,4 l/m 5,1 km/h (1 Bft) W-SW 0,00 h 0,027 mm 0,0 UV-I 18 W/m 10,1 C 11,7 C 8,1 km/h (2 Bft)
10.05.2014 20:00 11,2 C 91 % 1009,6 hPa 0,2 l/m 6,4 km/h (2 Bft) S-SW 0,00 h 0,025 mm 0,0 UV-I 10 W/m 9,8 C 10,5 C 10,9 km/h (2 Bft)
10.05.2014 21:00 10,8 C 92 % 1008,9 hPa 0,6 l/m 6,0 km/h (2 Bft) S 0,00 h 0,000 mm 0,0 UV-I 0 W/m 9,6 C 10,3 C 9,5 km/h (2 Bft)
10.05.2014 22:00 10,6 C 93 % 1008,8 hPa 0,6 l/m 8,5 km/h (2 Bft) S 0,00 h 0,000 mm 0,0 UV-I 0 W/m 9,5 C 9,2 C 13,3 km/h (3 Bft)
10.05.2014 23:00 10,2 C 93 % 1007,8 hPa 0,8 l/m 5,4 km/h (1 Bft) S 0,00 h 0,000 mm 0,0 UV-I 0 W/m 9,2 C 10,0 C 8,2 km/h (2 Bft)
11.05.2014 00:00 10,0 C 94 % 1007,1 hPa 1,6 l/m 6,7 km/h (2 Bft) S 0,00 h 0,000 mm 0,0 UV-I 0 W/m 9,0 C 9,3 C 10,8 km/h (2 Bft)
11.05.2014 01:00 10,0 C 94 % 1006,4 hPa 0,4 l/m 11,1 km/h (2 Bft) S 0,00 h 0,000 mm 0,0 UV-I 0 W/m 9,2 C 7,1 C 17,2 km/h (3 Bft)
11.05.2014 02:00 10,5 C 94 % 1006,1 hPa 0,4 l/m 11,7 km/h (2 Bft) S 0,00 h 0,000 mm 0,0 UV-I 0 W/m 9,6 C 7,4 C 19,0 km/h (3 Bft)
11.05.2014 03:00 10,4 C 91 % 1006,6 hPa 0,2 l/m 7,9 km/h (2 Bft) W-SW 0,00 h 0,000 mm 0,0 UV-I 0 W/m 9,0 C 9,2 C 12,4 km/h (3 Bft)
11.05.2014 04:00 9,7 C 92 % 1007,0 hPa 0,0 l/m 5,4 km/h (1 Bft) SW 0,00 h 0,000 mm 0,0 UV-I 0 W/m 8,4 C 9,6 C 8,9 km/h (2 Bft)
11.05.2014 05:00 8,9 C 93 % 1006,7 hPa 0,0 l/m 5,2 km/h (1 Bft) W-SW 0,00 h 0,000 mm 0,0 UV-I 9 W/m 7,8 C 8,8 C 8,4 km/h (2 Bft)
11.05.2014 06:00 8,8 C 93 % 1006,8 hPa 0,0 l/m 6,6 km/h (2 Bft) SW 0,02 h 0,000 mm 0,0 UV-I 30 W/m 7,7 C 8,1 C 10,2 km/h (2 Bft)
11.05.2014 07:00 9,0 C 92 % 1006,8 hPa 0,2 l/m 7,8 km/h (2 Bft) W-SW 0,28 h 0,025 mm 0,0 UV-I 45 W/m 7,7 C 7,8 C 12,3 km/h (3 Bft)
11.05.2014 08:00 8,2 C 89 % 1007,3 hPa 0,0 l/m 10,6 km/h (2 Bft) W 0,80 h 0,025 mm 0,7 UV-I 86 W/m 6,4 C 5,3 C 16,0 km/h (3 Bft)
11.05.2014 09:00 8,3 C 89 % 1007,2 hPa 0,0 l/m 5,7 km/h (1 Bft) SW 1,00 h 0,051 mm 1,0 UV-I 171 W/m 6,5 C 7,9 C 9,2 km/h (2 Bft)
11.05.2014 10:00 9,5 C 88 % 1007,5 hPa 0,0 l/m 7,2 km/h (2 Bft) SW 0,93 h 0,076 mm 1,0 UV-I 134 W/m 7,6 C 8,5 C 11,9 km/h (2 Bft)
11.05.2014 11:00 10,1 C 82 % 1007,3 hPa 0,2 l/m 9,9 km/h (2 Bft) W-SW 1,00 h 0,076 mm 1,7 UV-I 240 W/m 7,1 C 7,8 C 16,1 km/h (3 Bft)
11.05.2014 12:00 11,2 C 75 % 1007,1 hPa 0,0 l/m 12,4 km/h (3 Bft) W-SW 1,00 h 0,127 mm 3,1 UV-I 550 W/m 7,0 C 7,9 C 20,2 km/h (4 Bft)
11.05.2014 13:00 10,6 C 75 % 1006,8 hPa 0,0 l/m 11,0 km/h (2 Bft) W-SW 1,00 h 0,254 mm 1,8 UV-I 213 W/m 6,5 C 8,0 C 16,8 km/h (3 Bft)
11.05.2014 14:00 12,6 C 69 % 1006,4 hPa 0,0 l/m 13,4 km/h (3 Bft) W 0,98 h 0,152 mm 4,1 UV-I 672 W/m 7,1 C 9,1 C 19,9 km/h (4 Bft)
11.05.2014 15:00 11,3 C 73 % 1006,5 hPa 0,0 l/m 14,0 km/h (3 Bft) W-SW 0,95 h 0,356 mm 2,9 UV-I 492 W/m 6,5 C 7,5 C 21,5 km/h (4 Bft)
11.05.2014 16:00 11,4 C 77 % 1006,2 hPa 0,4 l/m 10,3 km/h (2 Bft) W 0,82 h 0,279 mm 2,1 UV-I 392 W/m 7,4 C 9,2 C 15,9 km/h (3 Bft)
11.05.2014 17:00 12,8 C 64 % 1005,8 hPa 0,0 l/m 15,1 km/h (3 Bft) W 0,98 h 0,229 mm 1,4 UV-I 285 W/m 6,1 C 8,8 C 23,1 km/h (4 Bft)
11.05.2014 18:00 12,5 C 57 % 1006,2 hPa 0,0 l/m 14,3 km/h (3 Bft) W 0,88 h 0,203 mm 0,7 UV-I 93 W/m 4,1 C 8,6 C 21,9 km/h (4 Bft)
11.05.2014 19:00 11,5 C 61 % 1006,4 hPa 0,0 l/m 15,4 km/h (3 Bft) W 0,27 h 0,127 mm 0,0 UV-I 47 W/m 4,3 C 7,0 C 22,7 km/h (4 Bft)
11.05.2014 20:00 10,0 C 66 % 1006,4 hPa 0,0 l/m 8,5 km/h (2 Bft) W-SW 0,00 h 0,102 mm 0,0 UV-I 11 W/m 3,9 C 8,6 C 12,7 km/h (3 Bft)
11.05.2014 21:00 8,9 C 72 % 1007,2 hPa 0,0 l/m 4,7 km/h (1 Bft) W-SW 0,00 h 0,025 mm 0,0 UV-I 0 W/m 4,1 C 8,7 C 8,0 km/h (2 Bft)
11.05.2014 22:00 8,5 C 74 % 1007,7 hPa 0,0 l/m 8,6 km/h (2 Bft) W-SW 0,00 h 0,025 mm 0,0 UV-I 0 W/m 4,1 C 6,5 C 13,2 km/h (3 Bft)
11.05.2014 23:00 7,9 C 77 % 1008,7 hPa 0,0 l/m 8,8 km/h (2 Bft) W-SW 0,00 h 0,025 mm 0,0 UV-I 0 W/m 4,1 C 6,1 C 14,2 km/h (3 Bft)
Min-Datum _ 08.05.14 05.05.14 11.05.14 - 05.05.14 - - - - - 05.05.14 05.05.14 05.05.14
_ Min-Zeit 18:20 14:52 17:43 - 00:00 - - - - - 06:14 06:14 00:06
Minimum _ 0,0 C 33 % 1005,6 hPa - 0,0 km/h (0 Bft) - - - - - -1,0 C 0,1 C 0,0 km/h (0 Bft)
Max-Datum _ 06.05.14 10.05.14 05.05.14 10.05.14 10.05.14 - 08.05.14 06.05.14 09.05.14 09.05.14 09.05.14 06.05.14 10.05.14
_ Max-Zeit 14:51 04:28 00:51 01:11 01:13 - 18:17 14:00 13:21 12:13 12:24 15:23 01:14
Maximum _ 20,5 C 96 % 1021,3 hPa 3,8 l/m 30,6 km/h
NW (5 Bft)
- 0,07 h 0,483 mm 7,1 UV-I 1148 W/m 12,3 C 20,3 C 46,7 km/h
W-NW (6 Bft)
Durchschnitt _ 11,5 C 74 % 1013,0 hPa #16,8 l/m 6,9 km/h (2 Bft) W-SW #80:04 h #18,917 mm 2,3 UV-I 259 W/m 6,6 C 10,3 C 10,9 km/h (2 Bft)